Time;durP1;ratioP1;P1;durP2;ratioP2;P2;SDS_P1;SDS_P2;PMS_P1;PMS_P2;Temp;Humidity;BMP_temperature;BMP_pressure;BME280_temperature;BME280_humidity;BME280_pressure;Samples;Min_cycle;Max_cycle;Signal;HPM_P1;HPM_P2
2022/12/27 00:02:14;;;;;;;1.20;1.00;;;19.20;42.20;;;;;;5024483;28;20230;-60
2022/12/27 00:04:40;;;;;;;1.07;0.97;;;19.20;42.10;;;;;;5023956;28;20218;-60
2022/12/27 00:07:06;;;;;;;1.40;1.30;;;19.20;42.20;;;;;;5022969;28;20313;-64
2022/12/27 00:09:31;;;;;;;1.00;1.00;;;19.20;42.10;;;;;;5022029;28;20222;-60
2022/12/27 00:11:57;;;;;;;1.30;1.20;;;19.20;42.20;;;;;;5022671;28;20463;-60
2022/12/27 00:14:23;;;;;;;1.00;0.80;;;19.20;42.10;;;;;;5023320;28;20280;-61
2022/12/27 00:16:48;;;;;;;1.63;0.90;;;19.20;42.20;;;;;;5023707;28;20229;-61
2022/12/27 00:19:14;;;;;;;1.10;1.00;;;19.20;42.20;;;;;;5022795;28;20298;-61
2022/12/27 00:21:40;;;;;;;0.80;0.80;;;19.20;42.10;;;;;;5023350;28;20234;-64
2022/12/27 00:24:06;;;;;;;1.10;1.00;;;19.20;42.10;;;;;;5023719;28;20257;-59
2022/12/27 00:26:33;;;;;;;0.83;0.80;;;19.20;42.10;;;;;;5022544;28;20270;-59
2022/12/27 00:29:00;;;;;;;1.10;1.00;;;19.20;42.10;;;;;;5023916;28;20457;-64
2022/12/27 00:31:28;;;;;;;1.30;1.00;;;19.20;42.00;;;;;;5022408;28;20460;-61
2022/12/27 00:33:58;;;;;;;1.13;1.03;;;19.20;42.10;;;;;;5021850;28;20448;-59
2022/12/27 00:36:25;;;;;;;1.30;1.03;;;19.20;42.10;;;;;;5022430;28;20509;-62
2022/12/27 00:38:52;;;;;;;0.93;0.83;;;19.20;42.00;;;;;;5024120;28;20892;-59
2022/12/27 00:41:18;;;;;;;1.10;1.00;;;19.20;42.00;;;;;;4998680;28;20460;-59
2022/12/27 00:43:44;;;;;;;1.27;1.10;;;19.20;42.00;;;;;;5022357;28;20430;-61
2022/12/27 00:46:11;;;;;;;0.80;0.80;;;19.20;42.00;;;;;;5022686;28;20458;-61
2022/12/27 00:48:37;;;;;;;1.00;0.90;;;19.20;42.00;;;;;;5022625;28;20789;-58
2022/12/27 00:51:09;;;;;;;0.90;0.90;;;19.20;42.00;;;;;;5022621;28;21129;-59
2022/12/27 00:53:35;;;;;;;1.10;0.90;;;19.20;42.00;;;;;;5021980;28;20282;-61
2022/12/27 00:56:10;;;;;;;1.00;0.90;;;19.20;42.00;;;;;;5023902;28;20447;-59
2022/12/27 00:58:36;;;;;;;1.00;0.90;;;19.20;42.00;;;;;;5022007;28;20452;-61
2022/12/27 01:01:10;;;;;;;1.30;1.00;;;19.20;42.00;;;;;;5023199;28;20541;-60
2022/12/27 01:03:36;;;;;;;1.20;1.10;;;19.20;41.90;;;;;;5022785;28;20451;-59
2022/12/27 01:06:06;;;;;;;0.80;0.80;;;19.20;41.90;;;;;;5022720;28;20448;-61
2022/12/27 01:08:32;;;;;;;1.70;1.07;;;19.20;41.90;;;;;;5021657;28;20670;-59
2022/12/27 01:10:58;;;;;;;0.83;0.83;;;19.20;42.00;;;;;;5022648;28;20991;-62
2022/12/27 01:13:23;;;;;;;1.00;0.90;;;19.20;41.90;;;;;;5026952;28;21083;-63
2022/12/27 01:15:49;;;;;;;1.10;1.00;;;19.20;41.90;;;;;;5028249;28;20225;-61
2022/12/27 01:18:14;;;;;;;1.30;0.93;;;19.20;41.90;;;;;;5026932;28;20695;-59
2022/12/27 01:20:40;;;;;;;1.20;1.10;;;19.20;41.90;;;;;;5024964;28;20321;-60
2022/12/27 01:23:05;;;;;;;0.90;0.90;;;19.20;42.00;;;;;;5027073;28;20225;-62
2022/12/27 01:25:31;;;;;;;1.00;0.90;;;19.20;41.90;;;;;;5024921;28;20222;-59
2022/12/27 01:27:56;;;;;;;1.10;0.83;;;19.20;41.90;;;;;;5027092;28;20238;-63
2022/12/27 01:30:22;;;;;;;1.27;1.17;;;19.20;41.90;;;;;;5026460;28;20223;-61
2022/12/27 01:32:48;;;;;;;1.10;1.00;;;19.20;41.90;;;;;;5026432;28;20268;-59
2022/12/27 01:35:13;;;;;;;0.77;0.70;;;19.20;41.90;;;;;;5025721;28;20214;-59
2022/12/27 01:37:39;;;;;;;1.00;0.90;;;19.20;41.90;;;;;;5025738;28;20485;-61
2022/12/27 01:40:05;;;;;;;1.00;0.90;;;19.20;41.90;;;;;;5024253;28;20218;-62
2022/12/27 01:45:24;;;;;;;1.17;1.07;;;19.20;41.90;;;;;;5018817;28;20455;-63
2022/12/27 01:48:00;;;;;;;1.20;1.10;;;19.20;41.90;;;;;;5020619;28;20982;-60
2022/12/27 01:50:40;;;;;;;1.00;0.90;;;19.20;41.90;;;;;;5024489;28;20470;-59
2022/12/27 01:53:14;;;;;;;1.10;1.00;;;19.20;41.80;;;;;;5025895;28;20458;-59
2022/12/27 01:56:00;;;;;;;0.80;0.80;;;19.20;41.90;;;;;;5025540;28;20582;-60
2022/12/27 01:58:38;;;;;;;1.00;0.90;;;19.20;41.90;;;;;;5024976;28;20445;-62
2022/12/27 02:01:08;;;;;;;1.00;0.90;;;19.20;41.80;;;;;;5019156;28;20482;-64
2022/12/27 02:03:58;;;;;;;1.43;0.70;;;19.20;41.90;;;;;;5019540;28;20437;-61
2022/12/27 02:06:25;;;;;;;1.13;1.00;;;19.20;41.80;;;;;;5017815;28;20448;-60
2022/12/27 02:09:09;;;;;;;1.10;1.00;;;19.20;41.80;;;;;;5026978;28;20448;-65
2022/12/27 02:11:51;;;;;;;0.80;0.80;;;19.10;41.70;;;;;;5024153;28;20458;-60
2022/12/27 02:14:31;;;;;;;1.00;0.90;;;19.10;41.70;;;;;;5025753;28;20448;-65
2022/12/27 02:17:00;;;;;;;0.90;0.77;;;19.10;41.70;;;;;;5024763;28;20959;-63
2022/12/27 02:19:37;;;;;;;0.83;0.80;;;19.10;41.70;;;;;;5008270;28;20460;-60
2022/12/27 02:22:27;;;;;;;1.00;0.70;;;19.10;42.50;;;;;;5025776;28;20463;-59
2022/12/27 02:25:19;;;;;;;0.80;0.80;;;19.20;41.80;;;;;;5025852;28;20497;-61
2022/12/27 02:28:06;;;;;;;1.00;0.90;;;19.10;41.70;;;;;;5024460;28;20464;-60
2022/12/27 02:30:33;;;;;;;0.90;0.80;;;19.10;41.70;;;;;;5024241;28;20534;-63
2022/12/27 02:33:11;;;;;;;1.03;0.87;;;19.10;41.70;;;;;;5024082;28;20452;-60
2022/12/27 02:35:41;;;;;;;1.37;1.13;;;19.10;41.70;;;;;;5023342;28;20584;-60
2022/12/27 02:38:14;;;;;;;0.97;0.87;;;19.10;41.70;;;;;;5024335;28;20979;-61
2022/12/27 02:55:39;;;;;;;0.80;0.80;;;19.10;41.70;;;;;;5024126;28;20525;-60
2022/12/27 02:58:22;;;;;;;0.77;0.70;;;19.10;41.60;;;;;;5024161;28;20476;-62
2022/12/27 03:03:58;;;;;;;0.80;0.70;;;19.10;41.70;;;;;;5026359;28;20429;-60
2022/12/27 03:06:39;;;;;;;0.90;0.80;;;19.10;41.60;;;;;;5021177;28;20448;-59
2022/12/27 03:18:52;;;;;;;0.83;0.70;;;19.10;41.60;;;;;;5025248;28;20983;-59
2022/12/27 03:27:16;;;;;;;0.80;0.73;;;19.10;41.60;;;;;;5023123;28;20606;-60
2022/12/27 03:35:27;;;;;;;1.00;0.90;;;19.10;41.60;;;;;;5021436;28;20467;-59
2022/12/27 03:38:02;;;;;;;0.90;0.80;;;19.10;42.00;;;;;;5024671;28;20452;-60
2022/12/27 03:40:37;;;;;;;0.70;0.70;;;19.10;41.50;;;;;;5003913;28;20576;-62
2022/12/27 03:43:09;;;;;;;1.13;0.70;;;19.10;41.50;;;;;;5022606;28;20816;-61
2022/12/27 03:49:18;;;;;;;1.10;0.87;;;19.10;41.50;;;;;;5022716;28;20466;-59
2022/12/27 03:51:54;;;;;;;1.00;0.70;;;19.10;41.50;;;;;;5022945;28;20451;-60
2022/12/27 03:54:27;;;;;;;0.70;0.70;;;19.10;41.50;;;;;;5023321;28;20480;-60
2022/12/27 03:56:55;;;;;;;0.90;0.70;;;19.10;41.50;;;;;;5023055;28;20451;-61
2022/12/27 03:59:21;;;;;;;1.23;0.80;;;19.10;41.40;;;;;;5023067;28;20455;-60
2022/12/27 04:01:46;;;;;;;0.90;0.70;;;19.20;41.50;;;;;;5022584;28;20823;-66
2022/12/27 04:04:12;;;;;;;0.70;0.70;;;19.10;41.40;;;;;;5023759;28;20472;-59
2022/12/27 04:06:37;;;;;;;0.80;0.80;;;19.10;41.40;;;;;;5023755;28;20528;-59
2022/12/27 04:36:25;;;;;;;0.80;0.80;;;19.10;41.40;;;;;;5020613;28;20429;-60
2022/12/27 04:38:50;;;;;;;1.10;1.00;;;19.10;41.40;;;;;;5022993;28;20802;-60
2022/12/27 04:55:21;;;;;;;1.00;0.90;;;19.10;41.30;;;;;;5022444;28;20522;-61
2022/12/27 04:57:47;;;;;;;0.80;0.70;;;19.10;41.30;;;;;;5021471;28;21017;-59
2022/12/27 05:03:00;;;;;;;1.00;0.90;;;19.10;41.30;;;;;;5020862;28;20237;-60
2022/12/27 05:05:25;;;;;;;0.90;0.80;;;19.10;41.30;;;;;;5022776;28;20914;-60
2022/12/27 05:16:04;;;;;;;0.83;0.73;;;19.10;41.20;;;;;;5021677;28;20822;-59
2022/12/27 05:18:30;;;;;;;0.80;0.80;;;19.10;41.20;;;;;;5023527;28;20444;-59
2022/12/27 05:21:01;;;;;;;0.77;0.77;;;19.10;41.20;;;;;;5021537;28;21063;-60
2022/12/27 05:26:20;;;;;;;0.80;0.67;;;19.10;41.20;;;;;;5022506;28;20598;-60
2022/12/27 05:28:47;;;;;;;0.87;0.70;;;19.10;41.10;;;;;;5020780;28;20480;-63
2022/12/27 05:31:13;;;;;;;0.80;0.80;;;19.10;41.20;;;;;;5021708;28;20419;-61
2022/12/27 05:33:39;;;;;;;0.80;0.70;;;19.10;41.10;;;;;;5020775;28;20482;-61
2022/12/27 05:36:05;;;;;;;0.80;0.80;;;19.10;41.10;;;;;;5021454;28;20444;-59
2022/12/27 05:38:30;;;;;;;0.70;0.60;;;19.10;41.10;;;;;;5022669;28;20722;-61
2022/12/27 05:41:00;;;;;;;0.90;0.80;;;19.10;41.10;;;;;;5021644;28;20571;-60
2022/12/27 05:43:26;;;;;;;1.23;0.90;;;19.10;41.10;;;;;;5021723;28;20756;-60
2022/12/27 05:45:53;;;;;;;1.00;0.90;;;19.10;41.20;;;;;;5022846;28;20536;-61
2022/12/27 05:48:19;;;;;;;0.70;0.70;;;19.10;41.10;;;;;;5022804;28;20459;-59
2022/12/27 05:50:44;;;;;;;0.70;0.63;;;19.10;41.10;;;;;;5021007;28;20448;-64
2022/12/27 05:53:10;;;;;;;1.23;0.83;;;19.10;41.10;;;;;;5022507;28;20222;-61
2022/12/27 05:55:36;;;;;;;0.80;0.80;;;19.10;41.10;;;;;;5022768;28;20590;-63
2022/12/27 05:58:01;;;;;;;0.70;0.70;;;19.10;41.10;;;;;;5021443;28;20234;-62
2022/12/27 06:00:27;;;;;;;1.07;0.83;;;19.10;41.10;;;;;;5026226;28;20243;-61
2022/12/27 06:02:52;;;;;;;0.80;0.70;;;19.10;41.00;;;;;;5027516;28;20254;-61
2022/12/27 06:05:18;;;;;;;0.80;0.70;;;19.10;41.00;;;;;;5026204;28;20254;-59
2022/12/27 06:07:43;;;;;;;0.77;0.77;;;19.10;41.00;;;;;;5026002;28;20234;-59
2022/12/27 06:10:10;;;;;;;0.80;0.73;;;19.10;41.80;;;;;;5025009;28;20215;-60
2022/12/27 06:12:35;;;;;;;0.97;0.90;;;19.10;41.10;;;;;;5025571;28;20234;-62
2022/12/27 06:15:03;;;;;;;0.70;0.70;;;19.20;41.00;;;;;;5025027;28;20444;-60
2022/12/27 06:17:28;;;;;;;1.20;0.87;;;19.10;41.00;;;;;;5025059;28;20361;-61
2022/12/27 06:19:54;;;;;;;0.70;0.70;;;19.10;41.00;;;;;;5026715;28;20498;-62
2022/12/27 06:22:19;;;;;;;0.80;0.70;;;19.10;41.00;;;;;;5027112;28;20329;-60
2022/12/27 06:24:45;;;;;;;1.23;1.00;;;19.20;41.00;;;;;;5026298;28;21075;-59
2022/12/27 06:27:10;;;;;;;0.90;0.80;;;19.20;41.00;;;;;;5023218;28;20824;-61
2022/12/27 06:29:36;;;;;;;0.80;0.70;;;19.20;41.00;;;;;;5024428;28;20749;-60
2022/12/27 06:32:02;;;;;;;1.57;0.80;;;19.10;40.90;;;;;;5024468;28;20407;-59
2022/12/27 06:34:28;;;;;;;0.67;0.60;;;19.10;40.90;;;;;;5024786;28;20231;-60
2022/12/27 06:36:53;;;;;;;0.70;0.67;;;19.10;40.90;;;;;;5024696;28;20674;-64
2022/12/27 06:39:19;;;;;;;0.80;0.77;;;19.20;41.00;;;;;;5025803;28;20301;-61
2022/12/27 06:41:45;;;;;;;0.80;0.77;;;19.20;41.00;;;;;;5024450;28;20225;-61
2022/12/27 06:44:10;;;;;;;0.77;0.70;;;19.10;41.00;;;;;;5021358;28;20258;-59
2022/12/27 06:46:36;;;;;;;0.80;0.70;;;19.10;41.00;;;;;;5024999;28;20310;-61
2022/12/27 06:49:02;;;;;;;1.50;0.80;;;19.20;41.00;;;;;;5025444;28;20234;-62
2022/12/27 06:51:28;;;;;;;0.80;0.60;;;19.10;40.90;;;;;;5026291;28;20229;-60
2022/12/27 06:53:54;;;;;;;0.80;0.70;;;19.10;40.90;;;;;;5024837;28;20527;-60
2022/12/27 06:56:21;;;;;;;1.20;1.13;;;19.20;41.00;;;;;;5026959;28;20545;-62
2022/12/27 06:58:48;;;;;;;0.70;0.70;;;19.10;40.90;;;;;;5025234;28;20720;-64
2022/12/27 07:01:22;;;;;;;0.90;0.80;;;19.10;40.90;;;;;;5024435;28;21074;-60
2022/12/27 07:03:53;;;;;;;1.00;0.90;;;19.10;40.80;;;;;;5023922;28;20431;-59
2022/12/27 07:06:19;;;;;;;0.83;0.70;;;19.10;40.80;;;;;;5024909;28;20459;-60
2022/12/27 07:08:45;;;;;;;0.80;0.70;;;19.20;40.90;;;;;;5022808;28;20798;-60
2022/12/27 07:11:13;;;;;;;0.80;0.80;;;19.10;40.80;;;;;;5024391;28;20808;-61
2022/12/27 07:13:41;;;;;;;0.73;0.63;;;19.10;40.90;;;;;;5023344;28;20456;-60
2022/12/27 07:16:10;;;;;;;0.90;0.60;;;19.10;40.80;;;;;;5024116;28;20535;-61
2022/12/27 07:18:36;;;;;;;0.90;0.90;;;19.10;40.80;;;;;;5024712;28;20913;-60
2022/12/27 07:21:13;;;;;;;0.80;0.80;;;19.20;40.90;;;;;;5022856;28;21007;-61
2022/12/27 07:23:39;;;;;;;0.93;0.80;;;19.10;40.80;;;;;;5023621;28;20455;-59
2022/12/27 07:26:10;;;;;;;1.03;0.90;;;19.10;40.80;;;;;;5022660;28;20451;-64
2022/12/27 07:28:36;;;;;;;0.90;0.77;;;19.10;40.80;;;;;;5023849;28;20280;-61
2022/12/27 07:31:10;;;;;;;0.80;0.80;;;19.10;40.80;;;;;;5023475;28;20509;-60
2022/12/27 07:33:37;;;;;;;0.80;0.70;;;19.10;40.80;;;;;;5024001;28;21058;-60
2022/12/27 07:36:04;;;;;;;0.77;0.77;;;19.20;40.90;;;;;;5023805;28;20463;-64
2022/12/27 07:38:30;;;;;;;0.80;0.70;;;19.10;40.80;;;;;;5023930;28;20777;-61
2022/12/27 07:40:58;;;;;;;0.80;0.80;;;19.10;40.80;;;;;;5022872;28;20973;-62
2022/12/27 07:43:25;;;;;;;0.90;0.80;;;19.10;40.80;;;;;;5013722;28;20292;-60
2022/12/27 07:45:50;;;;;;;0.73;0.73;;;19.10;40.80;;;;;;5018942;28;20452;-59
2022/12/27 07:48:16;;;;;;;1.00;0.90;;;19.10;40.80;;;;;;5020334;28;20828;-65
2022/12/27 07:50:41;;;;;;;0.90;0.80;;;19.10;40.80;;;;;;5023247;28;20223;-61
2022/12/27 07:53:07;;;;;;;0.80;0.80;;;19.10;40.80;;;;;;5024007;28;20214;-62
2022/12/27 07:55:32;;;;;;;0.80;0.80;;;19.10;40.80;;;;;;5022572;28;20245;-62
2022/12/27 07:57:58;;;;;;;0.80;0.73;;;19.10;40.70;;;;;;5023515;28;20678;-60
2022/12/27 08:00:23;;;;;;;1.10;0.90;;;19.10;40.70;;;;;;5024271;28;20257;-61
2022/12/27 08:02:49;;;;;;;1.53;0.80;;;19.10;40.80;;;;;;5023352;28;20235;-60
2022/12/27 08:05:14;;;;;;;1.10;1.00;;;19.20;40.90;;;;;;5024822;28;20230;-59
2022/12/27 08:07:40;;;;;;;1.00;0.80;;;19.10;40.70;;;;;;5022411;28;20211;-60
2022/12/27 08:10:06;;;;;;;1.00;0.80;;;19.10;40.70;;;;;;5023756;28;20300;-61
2022/12/27 08:12:32;;;;;;;1.20;1.10;;;19.10;40.70;;;;;;5022216;28;20257;-59
2022/12/27 08:14:58;;;;;;;0.83;0.83;;;19.10;40.70;;;;;;5023756;28;20450;-60
2022/12/27 08:17:26;;;;;;;1.20;0.80;;;19.10;40.70;;;;;;5023825;28;20238;-61
2022/12/27 08:19:52;;;;;;;0.80;0.80;;;19.10;40.70;;;;;;5023678;28;20326;-60
2022/12/27 08:22:19;;;;;;;0.60;0.60;;;19.10;40.70;;;;;;5021422;28;20509;-60
2022/12/27 08:24:44;;;;;;;0.80;0.80;;;19.10;40.70;;;;;;5021038;28;20539;-59
2022/12/27 08:27:10;;;;;;;1.40;0.80;;;19.20;40.80;;;;;;5021029;28;20650;-60
2022/12/27 08:29:36;;;;;;;0.90;0.80;;;19.20;40.80;;;;;;5021678;28;20305;-61
2022/12/27 08:32:03;;;;;;;0.97;0.87;;;19.10;40.70;;;;;;5023180;28;21015;-59
2022/12/27 08:34:28;;;;;;;1.00;0.90;;;19.10;40.60;;;;;;5023078;28;20226;-59
2022/12/27 08:36:54;;;;;;;0.80;0.80;;;19.20;40.70;;;;;;4999836;28;20471;-61
2022/12/27 08:39:19;;;;;;;1.33;1.03;;;19.10;40.60;;;;;;5022756;28;20230;-60
2022/12/27 08:41:45;;;;;;;1.13;0.80;;;19.10;40.60;;;;;;5022155;28;20235;-59
2022/12/27 08:44:11;;;;;;;0.80;0.70;;;19.10;40.60;;;;;;5023280;28;20222;-61
2022/12/27 08:46:37;;;;;;;0.90;0.90;;;19.20;40.70;;;;;;5022194;28;20448;-60
2022/12/27 08:49:03;;;;;;;0.83;0.83;;;19.20;40.70;;;;;;5022950;28;20441;-62
2022/12/27 08:51:29;;;;;;;0.80;0.80;;;19.20;40.70;;;;;;5023118;28;20219;-60
2022/12/27 08:53:54;;;;;;;0.80;0.80;;;19.20;40.70;;;;;;5024005;28;20453;-62
2022/12/27 08:56:20;;;;;;;1.60;0.90;;;19.20;40.70;;;;;;5021814;28;20261;-60
2022/12/27 08:58:48;;;;;;;0.90;0.80;;;19.20;40.70;;;;;;5021605;28;20230;-60
2022/12/27 09:01:13;;;;;;;0.90;0.80;;;19.10;40.60;;;;;;5022258;28;20278;-60
2022/12/27 09:03:39;;;;;;;0.80;0.70;;;19.20;40.60;;;;;;5005461;28;20910;-60
2022/12/27 09:06:14;;;;;;;0.83;0.73;;;19.20;40.70;;;;;;5021871;28;20232;-59
2022/12/27 09:08:41;;;;;;;0.80;0.70;;;19.20;40.70;;;;;;5021773;28;20229;-60
2022/12/27 09:11:21;;;;;;;0.80;0.80;;;19.20;40.70;;;;;;5022836;28;20502;-59
2022/12/27 09:13:47;;;;;;;1.30;1.20;;;19.20;40.60;;;;;;5022996;28;20456;-61
2022/12/27 09:16:15;;;;;;;0.80;0.60;;;19.20;40.60;;;;;;5022895;28;20462;-60
2022/12/27 09:18:42;;;;;;;1.00;0.77;;;19.20;40.60;;;;;;5022269;28;20227;-62
2022/12/27 09:21:10;;;;;;;0.90;0.70;;;19.20;40.60;;;;;;5022106;28;21053;-62
2022/12/27 09:23:36;;;;;;;0.70;0.70;;;19.20;40.60;;;;;;5020853;28;20464;-60
2022/12/27 09:26:11;;;;;;;0.80;0.80;;;19.20;40.60;;;;;;4996508;28;20845;-59
2022/12/27 09:28:37;;;;;;;0.77;0.70;;;19.20;40.60;;;;;;5021747;28;20566;-60
2022/12/27 09:31:03;;;;;;;0.80;0.70;;;19.20;40.60;;;;;;5022611;28;20460;-63
2022/12/27 09:33:29;;;;;;;0.80;0.73;;;19.20;40.50;;;;;;5021040;28;20250;-60
2022/12/27 09:36:16;;;;;;;0.77;0.77;;;19.20;40.50;;;;;;5026683;28;20433;-59
2022/12/27 09:38:42;;;;;;;0.97;0.80;;;19.20;40.50;;;;;;5025642;28;20448;-64
2022/12/27 09:41:43;;;;;;;1.00;0.90;;;19.20;40.50;;;;;;5026928;28;20963;-62
2022/12/27 09:44:37;;;;;;;1.20;1.00;;;19.20;40.50;;;;;;5020086;28;20498;-59
2022/12/27 09:47:16;;;;;;;0.70;0.70;;;19.20;40.50;;;;;;5027354;28;20535;-60
2022/12/27 09:49:48;;;;;;;1.00;0.80;;;19.20;40.50;;;;;;5026010;28;20430;-60
2022/12/27 09:52:28;;;;;;;0.90;0.90;;;19.20;40.50;;;;;;5025625;28;20451;-60
2022/12/27 09:55:22;;;;;;;0.70;0.60;;;19.20;40.50;;;;;;5025295;28;20959;-60
2022/12/27 09:57:54;;;;;;;0.77;0.70;;;19.20;40.50;;;;;;5023446;28;20454;-61
2022/12/27 10:00:24;;;;;;;0.80;0.70;;;19.20;40.50;;;;;;5027848;28;20562;-63
2022/12/27 10:02:51;;;;;;;0.90;0.80;;;19.20;40.40;;;;;;5023097;28;20465;-59
2022/12/27 10:05:32;;;;;;;0.77;0.70;;;19.20;40.40;;;;;;5027209;28;20414;-59
2022/12/27 10:08:12;;;;;;;0.77;0.73;;;19.20;40.30;;;;;;5024574;28;20485;-60
2022/12/27 10:10:45;;;;;;;0.80;0.70;;;19.20;40.40;;;;;;5024798;28;20464;-64
2022/12/27 10:13:32;;;;;;;0.80;0.73;;;19.20;40.40;;;;;;5025605;28;20455;-62
2022/12/27 10:16:25;;;;;;;0.60;0.60;;;19.20;40.30;;;;;;5026257;28;20458;-60
2022/12/27 10:19:19;;;;;;;0.83;0.80;;;19.20;40.30;;;;;;5025572;28;20440;-59
2022/12/27 10:22:29;;;;;;;0.90;0.80;;;19.30;40.40;;;;;;4981388;28;20530;-59
2022/12/27 10:24:58;;;;;;;0.80;0.70;;;19.20;40.30;;;;;;5023384;28;20470;-62
2022/12/27 10:27:26;;;;;;;0.80;0.70;;;19.20;40.30;;;;;;5026547;28;21071;-61
2022/12/27 10:29:57;;;;;;;0.70;0.70;;;19.20;40.30;;;;;;5026172;28;20531;-60
2022/12/27 10:32:22;;;;;;;0.70;0.70;;;19.20;40.30;;;;;;5027256;28;20442;-59
2022/12/27 10:35:00;;;;;;;0.80;0.70;;;19.20;40.30;;;;;;5025409;28;20468;-60
2022/12/27 10:37:26;;;;;;;0.90;0.80;;;19.30;40.30;;;;;;5023363;28;20223;-61
2022/12/27 10:39:52;;;;;;;0.70;0.70;;;19.20;40.30;;;;;;5025214;28;20469;-61
2022/12/27 10:42:34;;;;;;;1.00;0.70;;;19.30;40.40;;;;;;5024410;28;20234;-60
2022/12/27 10:45:27;;;;;;;0.70;0.70;;;19.30;40.30;;;;;;5021446;28;20223;-63
2022/12/27 10:47:57;;;;;;;0.70;0.67;;;19.30;40.30;;;;;;5024807;28;20444;-61
2022/12/27 10:50:25;;;;;;;0.90;0.80;;;19.30;40.40;;;;;;5025203;28;20444;-64
2022/12/27 10:52:51;;;;;;;0.80;0.80;;;19.30;40.30;;;;;;5025129;28;20514;-59
2022/12/27 10:55:38;;;;;;;0.97;0.87;;;19.30;40.30;;;;;;5024996;28;20917;-60
2022/12/27 10:58:25;;;;;;;0.60;0.60;;;19.30;40.30;;;;;;5020370;28;20219;-61
2022/12/27 11:00:56;;;;;;;0.90;0.80;;;19.30;40.30;;;;;;5025095;28;20518;-60
2022/12/27 11:03:22;;;;;;;0.90;0.80;;;19.30;40.20;;;;;;5000633;28;20824;-60
2022/12/27 11:06:02;;;;;;;0.90;0.80;;;19.30;40.20;;;;;;5023987;28;20459;-65
2022/12/27 11:08:29;;;;;;;0.70;0.57;;;19.30;40.30;;;;;;5022384;28;20456;-59
2022/12/27 11:11:18;;;;;;;0.70;0.60;;;19.30;40.20;;;;;;5025347;28;20475;-60
2022/12/27 11:13:44;;;;;;;0.80;0.60;;;19.30;40.20;;;;;;5023119;28;20974;-60
2022/12/27 11:16:36;;;;;;;0.70;0.60;;;19.30;40.20;;;;;;5024117;28;20426;-64
2022/12/27 11:19:02;;;;;;;0.70;0.70;;;19.30;40.10;;;;;;5020317;28;20276;-60
2022/12/27 11:21:29;;;;;;;0.70;0.70;;;19.30;40.20;;;;;;5024151;28;21086;-60
2022/12/27 11:24:01;;;;;;;0.80;0.73;;;19.30;40.10;;;;;;5023384;28;20449;-60
2022/12/27 11:26:31;;;;;;;0.80;0.70;;;19.30;40.10;;;;;;5022980;28;20979;-60
2022/12/27 11:28:59;;;;;;;0.70;0.70;;;19.30;40.20;;;;;;5024277;28;20423;-61
2022/12/27 11:31:30;;;;;;;0.80;0.80;;;19.30;40.10;;;;;;5025164;28;20478;-60
2022/12/27 11:33:59;;;;;;;0.80;0.70;;;19.30;40.10;;;;;;5023636;28;20452;-63
2022/12/27 11:36:39;;;;;;;0.73;0.67;;;19.30;40.10;;;;;;5024575;28;20452;-60
2022/12/27 11:39:06;;;;;;;0.73;0.60;;;19.30;40.10;;;;;;5025041;28;20451;-59
2022/12/27 11:41:55;;;;;;;0.80;0.70;;;19.40;40.20;;;;;;5022029;28;20831;-66
2022/12/27 11:44:20;;;;;;;0.70;0.70;;;19.40;40.20;;;;;;5024171;28;21029;-65
2022/12/27 11:47:05;;;;;;;0.97;0.87;;;19.40;40.10;;;;;;5024091;28;20454;-62
2022/12/27 11:49:35;;;;;;;0.80;0.60;;;19.40;40.20;;;;;;5022916;28;20231;-63
2022/12/27 11:52:36;;;;;;;0.93;0.80;;;19.40;40.10;;;;;;5022047;28;20448;-59
2022/12/27 11:55:42;;;;;;;0.90;0.80;;;19.40;40.20;;;;;;5022961;28;20494;-60
2022/12/27 11:58:45;;;;;;;1.73;0.70;;;19.40;40.10;;;;;;5021518;28;20456;-60
2022/12/27 12:01:33;;;;;;;0.80;0.80;;;19.40;40.20;;;;;;5023554;28;20470;-61
2022/12/27 12:04:36;;;;;;;0.90;0.80;;;19.40;40.20;;;;;;5022688;28;20452;-60
2022/12/27 12:07:26;;;;;;;0.70;0.70;;;19.40;40.20;;;;;;5022188;28;20454;-62
2022/12/27 12:10:12;;;;;;;0.70;0.70;;;19.40;40.20;;;;;;5022372;28;20468;-59
2022/12/27 12:13:00;;;;;;;0.80;0.80;;;19.30;40.10;;;;;;5022686;28;20863;-63
2022/12/27 12:15:38;;;;;;;0.80;0.70;;;19.40;40.10;;;;;;5021573;28;20971;-62
2022/12/27 12:18:14;;;;;;;0.90;0.80;;;19.30;40.10;;;;;;5023594;28;20464;-62
2022/12/27 12:21:11;;;;;;;0.80;0.70;;;19.30;40.10;;;;;;5022884;28;20471;-60
2022/12/27 12:24:07;;;;;;;0.80;0.80;;;19.40;40.10;;;;;;5021523;28;20498;-60
2022/12/27 12:26:47;;;;;;;0.70;0.70;;;19.30;40.00;;;;;;5021974;28;20551;-60
2022/12/27 12:29:34;;;;;;;0.70;0.70;;;19.30;40.00;;;;;;5023165;28;20982;-64
2022/12/27 12:32:37;;;;;;;0.70;0.70;;;19.30;40.10;;;;;;5022950;28;20510;-62
2022/12/27 12:35:34;;;;;;;0.73;0.70;;;19.30;40.00;;;;;;5007896;28;20452;-60
2022/12/27 12:38:37;;;;;;;0.80;0.70;;;19.30;40.00;;;;;;5022107;28;20459;-61
2022/12/27 12:41:24;;;;;;;0.80;0.70;;;19.30;40.00;;;;;;4965893;28;20966;-62
2022/12/27 12:44:21;;;;;;;0.80;0.70;;;19.30;40.00;;;;;;5021292;28;20529;-61
2022/12/27 12:47:04;;;;;;;0.70;0.70;;;19.30;40.00;;;;;;5021451;28;20814;-61
2022/12/27 12:49:59;;;;;;;0.77;0.77;;;19.30;40.00;;;;;;5021978;28;20598;-60
2022/12/27 12:52:53;;;;;;;0.70;0.60;;;19.30;40.00;;;;;;5021117;28;20435;-61
2022/12/27 12:55:36;;;;;;;0.87;0.80;;;19.30;40.00;;;;;;5022392;28;20460;-59
2022/12/27 12:58:24;;;;;;;0.70;0.60;;;19.30;40.00;;;;;;5021339;28;20510;-60
2022/12/27 13:01:24;;;;;;;0.70;0.70;;;19.30;40.00;;;;;;5009440;28;20546;-59
2022/12/27 13:04:15;;;;;;;0.80;0.80;;;19.30;40.00;;;;;;5023010;28;20866;-61
2022/12/27 13:07:02;;;;;;;0.83;0.70;;;19.30;40.10;;;;;;5022486;28;20886;-62
2022/12/27 13:09:56;;;;;;;0.80;0.70;;;19.30;40.00;;;;;;5021860;28;20542;-59
2022/12/27 13:12:34;;;;;;;0.80;0.80;;;19.30;40.00;;;;;;5022383;28;20498;-61
2022/12/27 13:15:22;;;;;;;0.80;0.80;;;19.30;40.00;;;;;;5022306;28;20594;-59
2022/12/27 13:18:09;;;;;;;0.80;0.73;;;19.30;40.00;;;;;;5022910;28;20444;-60
2022/12/27 13:21:00;;;;;;;0.90;0.80;;;19.30;40.00;;;;;;5020206;28;20526;-60
2022/12/27 13:23:42;;;;;;;1.00;0.80;;;19.30;40.00;;;;;;5022039;28;20449;-60
2022/12/27 13:26:35;;;;;;;0.73;0.70;;;19.30;40.00;;;;;;5023670;28;20425;-60
2022/12/27 13:29:32;;;;;;;0.80;0.70;;;19.30;40.00;;;;;;5020394;28;20430;-61
2022/12/27 13:32:37;;;;;;;0.80;0.70;;;19.30;40.00;;;;;;5014146;28;20460;-60
2022/12/27 13:35:27;;;;;;;0.70;0.53;;;19.30;39.90;;;;;;5021548;28;20427;-63
2022/12/27 13:38:10;;;;;;;1.17;0.83;;;19.30;39.90;;;;;;5021728;28;20452;-65
2022/12/27 13:40:48;;;;;;;0.97;0.80;;;19.30;39.90;;;;;;5020817;28;20971;-59
2022/12/27 13:43:33;;;;;;;0.80;0.80;;;19.30;40.00;;;;;;5020602;28;20797;-61
2022/12/27 13:46:17;;;;;;;0.73;0.73;;;19.30;39.90;;;;;;5021459;28;20452;-59
2022/12/27 13:49:10;;;;;;;0.80;0.70;;;19.30;39.90;;;;;;5020795;28;20468;-64
2022/12/27 13:51:42;;;;;;;0.80;0.77;;;19.30;39.90;;;;;;5020933;28;20514;-61
2022/12/27 13:54:29;;;;;;;0.80;0.70;;;19.30;39.90;;;;;;5023410;28;20456;-62
2022/12/27 13:57:15;;;;;;;0.87;0.70;;;19.30;39.90;;;;;;5020683;28;20899;-63
2022/12/27 13:59:50;;;;;;;0.87;0.70;;;19.30;39.90;;;;;;5021509;28;20455;-61
2022/12/27 14:02:36;;;;;;;0.77;0.70;;;19.30;39.90;;;;;;5021624;28;20550;-59
2022/12/27 14:05:04;;;;;;;0.70;0.70;;;19.30;39.90;;;;;;5021193;28;20509;-59
2022/12/27 14:07:45;;;;;;;0.80;0.80;;;19.30;39.90;;;;;;5021364;28;20464;-61
2022/12/27 14:10:38;;;;;;;0.80;0.70;;;19.30;39.90;;;;;;5020703;28;20781;-65
2022/12/27 14:13:09;;;;;;;0.60;0.60;;;19.30;39.90;;;;;;5021348;28;20474;-59
2022/12/27 14:16:09;;;;;;;0.83;0.80;;;19.30;39.90;;;;;;5020815;28;20448;-63
2022/12/27 14:19:01;;;;;;;0.80;0.73;;;19.30;39.90;;;;;;5020322;28;20455;-62
2022/12/27 14:21:54;;;;;;;0.90;0.80;;;19.30;39.90;;;;;;5024785;28;20521;-60
2022/12/27 14:24:50;;;;;;;0.90;0.70;;;19.30;39.90;;;;;;5025369;28;20459;-60
2022/12/27 14:27:46;;;;;;;1.00;0.83;;;19.30;39.90;;;;;;5024062;28;20477;-64
2022/12/27 14:30:49;;;;;;;0.70;0.70;;;19.30;39.90;;;;;;5024159;28;20446;-59
2022/12/27 14:33:51;;;;;;;0.70;0.70;;;19.30;39.90;;;;;;5026339;28;20559;-59
2022/12/27 14:36:39;;;;;;;0.67;0.63;;;19.30;39.90;;;;;;5025362;28;20448;-61
2022/12/27 14:39:19;;;;;;;0.90;0.80;;;19.30;39.90;;;;;;5025911;28;20915;-60
2022/12/27 14:41:45;;;;;;;0.90;0.80;;;19.20;39.80;;;;;;5021078;28;20860;-59
2022/12/27 14:44:59;;;;;;;1.00;0.90;;;19.30;39.90;;;;;;5022678;28;20471;-60
2022/12/27 14:48:03;;;;;;;0.70;0.63;;;19.30;39.90;;;;;;5021788;28;20230;-65
2022/12/27 14:51:06;;;;;;;0.80;0.77;;;19.30;39.90;;;;;;5023664;28;20760;-65
2022/12/27 14:54:08;;;;;;;0.93;0.83;;;19.30;39.90;;;;;;5022863;28;20440;-59
2022/12/27 14:57:13;;;;;;;0.70;0.60;;;19.30;39.90;;;;;;5022184;28;20453;-60
2022/12/27 15:00:10;;;;;;;0.73;0.73;;;19.20;39.80;;;;;;5023026;28;20459;-60
2022/12/27 15:02:56;;;;;;;0.80;0.80;;;19.30;40.00;;;;;;5023570;28;20437;-63
2022/12/27 15:05:25;;;;;;;0.80;0.80;;;19.30;40.00;;;;;;5023377;28;20454;-61
2022/12/27 15:08:25;;;;;;;0.70;0.70;;;19.20;39.80;;;;;;5024975;28;20438;-60